sensor_id;sensor_type;location;lat;lon;timestamp;pressure;altitude;pressure_sealevel;temperature;humidity
74868;BME280;63419;42.262;12.210;2023-03-04T00:02:09;97121.53;;;10.69;100.00
74868;BME280;63419;42.262;12.210;2023-03-04T00:04:39;97123.56;;;10.65;100.00
74868;BME280;63419;42.262;12.210;2023-03-04T00:07:07;97125.66;;;10.67;100.00
74868;BME280;63419;42.262;12.210;2023-03-04T00:09:37;97128.19;;;10.68;100.00
74868;BME280;63419;42.262;12.210;2023-03-04T00:12:05;97130.66;;;10.67;100.00
74868;BME280;63419;42.262;12.210;2023-03-04T00:14:35;97132.88;;;10.69;100.00
74868;BME280;63419;42.262;12.210;2023-03-04T00:17:03;97133.97;;;10.67;100.00
74868;BME280;63419;42.262;12.210;2023-03-04T00:19:31;97135.84;;;10.65;100.00
74868;BME280;63419;42.262;12.210;2023-03-04T00:22:03;97137.69;;;10.63;100.00
74868;BME280;63419;42.262;12.210;2023-03-04T00:24:32;97138.00;;;10.58;100.00
74868;BME280;63419;42.262;12.210;2023-03-04T00:27:01;97140.09;;;10.55;100.00
74868;BME280;63419;42.262;12.210;2023-03-04T00:32:13;97140.44;;;10.56;100.00
74868;BME280;63419;42.262;12.210;2023-03-04T00:34:42;97140.91;;;10.56;100.00
74868;BME280;63419;42.262;12.210;2023-03-04T00:37:10;97140.69;;;10.54;100.00
74868;BME280;63419;42.262;12.210;2023-03-04T00:39:37;97140.34;;;10.53;100.00
74868;BME280;63419;42.262;12.210;2023-03-04T00:42:05;97140.69;;;10.52;100.00
74868;BME280;63419;42.262;12.210;2023-03-04T00:44:32;97139.88;;;10.54;100.00
74868;BME280;63419;42.262;12.210;2023-03-04T00:46:59;97138.69;;;10.52;100.00
74868;BME280;63419;42.262;12.210;2023-03-04T00:49:26;97138.38;;;10.53;100.00
74868;BME280;63419;42.262;12.210;2023-03-04T00:51:54;97137.41;;;10.50;100.00
74868;BME280;63419;42.262;12.210;2023-03-04T00:54:21;97137.91;;;10.50;100.00
74868;BME280;63419;42.262;12.210;2023-03-04T00:56:48;97136.53;;;10.58;100.00
74868;BME280;63419;42.262;12.210;2023-03-04T00:59:15;97135.84;;;10.63;100.00
74868;BME280;63419;42.262;12.210;2023-03-04T01:01:42;97135.28;;;10.61;100.00
74868;BME280;63419;42.262;12.210;2023-03-04T01:04:11;97134.13;;;10.60;100.00
74868;BME280;63419;42.262;12.210;2023-03-04T01:06:38;97132.00;;;10.61;100.00
74868;BME280;63419;42.262;12.210;2023-03-04T01:09:05;97131.19;;;10.68;100.00
74868;BME280;63419;42.262;12.210;2023-03-04T01:11:32;97130.00;;;10.64;100.00
74868;BME280;63419;42.262;12.210;2023-03-04T01:14:00;97128.84;;;10.69;100.00
74868;BME280;63419;42.262;12.210;2023-03-04T01:16:27;97127.06;;;10.73;100.00
74868;BME280;63419;42.262;12.210;2023-03-04T01:18:54;97125.03;;;10.79;100.00
74868;BME280;63419;42.262;12.210;2023-03-04T01:21:22;97123.22;;;10.74;100.00
74868;BME280;63419;42.262;12.210;2023-03-04T01:23:49;97121.16;;;10.70;100.00
74868;BME280;63419;42.262;12.210;2023-03-04T01:26:17;97119.97;;;10.68;100.00
74868;BME280;63419;42.262;12.210;2023-03-04T01:28:44;97117.53;;;10.65;100.00
74868;BME280;63419;42.262;12.210;2023-03-04T01:31:11;97116.38;;;10.67;100.00
74868;BME280;63419;42.262;12.210;2023-03-04T01:33:38;97114.72;;;10.64;100.00
74868;BME280;63419;42.262;12.210;2023-03-04T01:36:05;97112.44;;;10.65;100.00
74868;BME280;63419;42.262;12.210;2023-03-04T01:38:33;97111.00;;;10.68;100.00
74868;BME280;63419;42.262;12.210;2023-03-04T01:41:00;97110.09;;;10.64;100.00
74868;BME280;63419;42.262;12.210;2023-03-04T01:43:30;97108.28;;;10.62;100.00
74868;BME280;63419;42.262;12.210;2023-03-04T01:45:58;97106.06;;;10.60;100.00
74868;BME280;63419;42.262;12.210;2023-03-04T01:48:36;97103.47;;;10.59;100.00
74868;BME280;63419;42.262;12.210;2023-03-04T01:51:06;97100.88;;;10.54;100.00
74868;BME280;63419;42.262;12.210;2023-03-04T01:53:37;97098.22;;;10.53;100.00
74868;BME280;63419;42.262;12.210;2023-03-04T01:56:27;97096.00;;;10.55;100.00
74868;BME280;63419;42.262;12.210;2023-03-04T01:59:18;97093.88;;;10.57;100.00
74868;BME280;63419;42.262;12.210;2023-03-04T02:01:53;97091.78;;;10.57;100.00
74868;BME280;63419;42.262;12.210;2023-03-04T02:04:41;97089.84;;;10.57;100.00
74868;BME280;63419;42.262;12.210;2023-03-04T02:07:09;97088.28;;;10.62;100.00
74868;BME280;63419;42.262;12.210;2023-03-04T02:09:36;97086.50;;;10.61;100.00
74868;BME280;63419;42.262;12.210;2023-03-04T02:12:03;97083.91;;;10.63;100.00
74868;BME280;63419;42.262;12.210;2023-03-04T02:14:31;97081.53;;;10.69;100.00
74868;BME280;63419;42.262;12.210;2023-03-04T02:16:58;97079.63;;;10.65;100.00
74868;BME280;63419;42.262;12.210;2023-03-04T02:20:30;97077.56;;;10.68;100.00
74868;BME280;63419;42.262;12.210;2023-03-04T02:23:33;97075.75;;;10.67;100.00
74868;BME280;63419;42.262;12.210;2023-03-04T02:26:22;97074.22;;;10.70;100.00
74868;BME280;63419;42.262;12.210;2023-03-04T02:28:53;97072.81;;;10.66;100.00
74868;BME280;63419;42.262;12.210;2023-03-04T02:33:56;97068.75;;;10.71;100.00
74868;BME280;63419;42.262;12.210;2023-03-04T02:36:26;97066.56;;;10.73;100.00
74868;BME280;63419;42.262;12.210;2023-03-04T02:38:56;97065.28;;;10.71;100.00
74868;BME280;63419;42.262;12.210;2023-03-04T02:41:29;97064.16;;;10.68;100.00
74868;BME280;63419;42.262;12.210;2023-03-04T02:43:56;97063.50;;;10.65;100.00
74868;BME280;63419;42.262;12.210;2023-03-04T02:46:23;97062.53;;;10.66;100.00
74868;BME280;63419;42.262;12.210;2023-03-04T02:48:51;97060.88;;;10.66;100.00
74868;BME280;63419;42.262;12.210;2023-03-04T02:51:19;97059.53;;;10.67;100.00
74868;BME280;63419;42.262;12.210;2023-03-04T02:53:46;97059.19;;;10.67;100.00
74868;BME280;63419;42.262;12.210;2023-03-04T02:56:13;97058.78;;;10.69;100.00
74868;BME280;63419;42.262;12.210;2023-03-04T02:58:40;97058.50;;;10.72;100.00
74868;BME280;63419;42.262;12.210;2023-03-04T03:01:08;97058.13;;;10.64;100.00
74868;BME280;63419;42.262;12.210;2023-03-04T03:03:35;97057.38;;;10.63;100.00
74868;BME280;63419;42.262;12.210;2023-03-04T03:06:30;97056.13;;;10.67;100.00
74868;BME280;63419;42.262;12.210;2023-03-04T03:08:57;97056.19;;;10.71;100.00
74868;BME280;63419;42.262;12.210;2023-03-04T03:11:24;97054.97;;;10.69;100.00
74868;BME280;63419;42.262;12.210;2023-03-04T03:13:52;97054.84;;;10.67;100.00
74868;BME280;63419;42.262;12.210;2023-03-04T03:16:19;97054.06;;;10.70;100.00
74868;BME280;63419;42.262;12.210;2023-03-04T03:18:46;97052.72;;;10.69;100.00
74868;BME280;63419;42.262;12.210;2023-03-04T03:21:14;97051.31;;;10.67;100.00
74868;BME280;63419;42.262;12.210;2023-03-04T03:23:41;97050.00;;;10.67;100.00
74868;BME280;63419;42.262;12.210;2023-03-04T03:26:09;97049.63;;;10.62;100.00
74868;BME280;63419;42.262;12.210;2023-03-04T03:28:36;97049.16;;;10.56;100.00
74868;BME280;63419;42.262;12.210;2023-03-04T03:31:03;97048.81;;;10.53;100.00
74868;BME280;63419;42.262;12.210;2023-03-04T03:33:31;97048.25;;;10.55;100.00
74868;BME280;63419;42.262;12.210;2023-03-04T03:35:58;97046.19;;;10.54;100.00
74868;BME280;63419;42.262;12.210;2023-03-04T03:38:26;97044.28;;;10.59;100.00
74868;BME280;63419;42.262;12.210;2023-03-04T03:40:53;97043.88;;;10.57;100.00
74868;BME280;63419;42.262;12.210;2023-03-04T03:43:20;97042.59;;;10.57;100.00
74868;BME280;63419;42.262;12.210;2023-03-04T03:45:48;97042.66;;;10.57;100.00
74868;BME280;63419;42.262;12.210;2023-03-04T03:48:15;97040.59;;;10.58;100.00
74868;BME280;63419;42.262;12.210;2023-03-04T03:50:42;97039.28;;;10.59;100.00
74868;BME280;63419;42.262;12.210;2023-03-04T03:53:09;97037.78;;;10.55;100.00
74868;BME280;63419;42.262;12.210;2023-03-04T03:55:37;97036.91;;;10.56;100.00
74868;BME280;63419;42.262;12.210;2023-03-04T03:58:05;97036.31;;;10.51;100.00
74868;BME280;63419;42.262;12.210;2023-03-04T04:00:32;97035.66;;;10.60;100.00
74868;BME280;63419;42.262;12.210;2023-03-04T04:03:00;97035.09;;;10.59;100.00
74868;BME280;63419;42.262;12.210;2023-03-04T04:05:28;97035.47;;;10.55;100.00
74868;BME280;63419;42.262;12.210;2023-03-04T04:07:55;97036.19;;;10.56;100.00
74868;BME280;63419;42.262;12.210;2023-03-04T04:10:22;97037.19;;;10.55;100.00
74868;BME280;63419;42.262;12.210;2023-03-04T04:12:49;97037.13;;;10.55;100.00
74868;BME280;63419;42.262;12.210;2023-03-04T04:15:17;97038.16;;;10.60;100.00
74868;BME280;63419;42.262;12.210;2023-03-04T04:17:44;97039.72;;;10.56;100.00
74868;BME280;63419;42.262;12.210;2023-03-04T04:20:11;97040.66;;;10.59;100.00
74868;BME280;63419;42.262;12.210;2023-03-04T04:22:38;97040.28;;;10.56;100.00
74868;BME280;63419;42.262;12.210;2023-03-04T04:25:06;97040.81;;;10.55;100.00
74868;BME280;63419;42.262;12.210;2023-03-04T04:27:37;97041.44;;;10.56;100.00
74868;BME280;63419;42.262;12.210;2023-03-04T04:30:05;97042.28;;;10.57;100.00
74868;BME280;63419;42.262;12.210;2023-03-04T04:32:32;97042.00;;;10.49;100.00
74868;BME280;63419;42.262;12.210;2023-03-04T04:35:00;97042.66;;;10.52;100.00
74868;BME280;63419;42.262;12.210;2023-03-04T04:37:27;97043.00;;;10.48;100.00
74868;BME280;63419;42.262;12.210;2023-03-04T04:39:57;97043.84;;;10.51;100.00
74868;BME280;63419;42.262;12.210;2023-03-04T04:42:24;97043.84;;;10.49;100.00
74868;BME280;63419;42.262;12.210;2023-03-04T04:44:51;97043.47;;;10.47;100.00
74868;BME280;63419;42.262;12.210;2023-03-04T04:47:19;97042.66;;;10.45;100.00
74868;BME280;63419;42.262;12.210;2023-03-04T04:49:46;97042.69;;;10.46;100.00
74868;BME280;63419;42.262;12.210;2023-03-04T04:52:13;97042.81;;;10.47;100.00
74868;BME280;63419;42.262;12.210;2023-03-04T04:54:40;97043.16;;;10.43;100.00
74868;BME280;63419;42.262;12.210;2023-03-04T04:57:10;97043.22;;;10.41;100.00
74868;BME280;63419;42.262;12.210;2023-03-04T04:59:37;97044.09;;;10.42;100.00
74868;BME280;63419;42.262;12.210;2023-03-04T05:02:04;97045.53;;;10.42;100.00
74868;BME280;63419;42.262;12.210;2023-03-04T05:04:31;97047.28;;;10.46;100.00
74868;BME280;63419;42.262;12.210;2023-03-04T05:06:59;97047.81;;;10.49;100.00
74868;BME280;63419;42.262;12.210;2023-03-04T05:09:26;97048.66;;;10.51;100.00
74868;BME280;63419;42.262;12.210;2023-03-04T05:11:53;97048.78;;;10.52;100.00
74868;BME280;63419;42.262;12.210;2023-03-04T05:14:20;97049.56;;;10.56;100.00
74868;BME280;63419;42.262;12.210;2023-03-04T05:16:48;97050.44;;;10.57;100.00
74868;BME280;63419;42.262;12.210;2023-03-04T05:19:16;97050.78;;;10.54;100.00
74868;BME280;63419;42.262;12.210;2023-03-04T05:21:43;97050.59;;;10.57;100.00
74868;BME280;63419;42.262;12.210;2023-03-04T05:24:10;97050.75;;;10.60;100.00
74868;BME280;63419;42.262;12.210;2023-03-04T05:26:39;97050.84;;;10.55;100.00
74868;BME280;63419;42.262;12.210;2023-03-04T05:29:07;97051.66;;;10.56;100.00
74868;BME280;63419;42.262;12.210;2023-03-04T05:31:34;97051.88;;;10.58;100.00
74868;BME280;63419;42.262;12.210;2023-03-04T05:34:01;97051.84;;;10.54;100.00
74868;BME280;63419;42.262;12.210;2023-03-04T05:36:28;97051.09;;;10.55;100.00
74868;BME280;63419;42.262;12.210;2023-03-04T05:38:56;97051.72;;;10.53;100.00
74868;BME280;63419;42.262;12.210;2023-03-04T05:41:23;97051.28;;;10.54;100.00
74868;BME280;63419;42.262;12.210;2023-03-04T05:43:51;97051.34;;;10.54;100.00
74868;BME280;63419;42.262;12.210;2023-03-04T05:46:19;97052.47;;;10.56;100.00
74868;BME280;63419;42.262;12.210;2023-03-04T05:48:53;97052.53;;;10.58;100.00
74868;BME280;63419;42.262;12.210;2023-03-04T05:51:21;97053.53;;;10.59;100.00
74868;BME280;63419;42.262;12.210;2023-03-04T05:53:48;97055.00;;;10.60;100.00
74868;BME280;63419;42.262;12.210;2023-03-04T05:56:18;97056.53;;;10.62;100.00
74868;BME280;63419;42.262;12.210;2023-03-04T05:58:45;97059.53;;;10.60;100.00
74868;BME280;63419;42.262;12.210;2023-03-04T06:01:13;97062.72;;;10.61;100.00
74868;BME280;63419;42.262;12.210;2023-03-04T06:03:41;97064.81;;;10.61;100.00
74868;BME280;63419;42.262;12.210;2023-03-04T06:06:14;97068.28;;;10.69;100.00
74868;BME280;63419;42.262;12.210;2023-03-04T06:08:41;97070.19;;;10.70;100.00
74868;BME280;63419;42.262;12.210;2023-03-04T06:11:09;97073.34;;;10.63;100.00
74868;BME280;63419;42.262;12.210;2023-03-04T06:13:36;97074.84;;;10.60;100.00
74868;BME280;63419;42.262;12.210;2023-03-04T06:16:04;97076.59;;;10.61;100.00
74868;BME280;63419;42.262;12.210;2023-03-04T06:18:32;97078.78;;;10.59;100.00
74868;BME280;63419;42.262;12.210;2023-03-04T06:21:01;97081.09;;;10.61;100.00
74868;BME280;63419;42.262;12.210;2023-03-04T06:23:30;97082.69;;;10.63;100.00
74868;BME280;63419;42.262;12.210;2023-03-04T06:26:01;97083.88;;;10.64;100.00
74868;BME280;63419;42.262;12.210;2023-03-04T06:28:28;97085.09;;;10.65;100.00
74868;BME280;63419;42.262;12.210;2023-03-04T06:30:57;97085.66;;;10.72;100.00
74868;BME280;63419;42.262;12.210;2023-03-04T06:33:24;97087.25;;;10.69;100.00
74868;BME280;63419;42.262;12.210;2023-03-04T06:35:56;97089.00;;;10.78;100.00
74868;BME280;63419;42.262;12.210;2023-03-04T06:38:25;97090.91;;;10.84;100.00
74868;BME280;63419;42.262;12.210;2023-03-04T06:40:52;97092.41;;;10.89;100.00
74868;BME280;63419;42.262;12.210;2023-03-04T06:43:23;97095.19;;;10.92;100.00
74868;BME280;63419;42.262;12.210;2023-03-04T06:45:50;97096.22;;;10.94;100.00
74868;BME280;63419;42.262;12.210;2023-03-04T06:48:17;97098.50;;;10.96;100.00
74868;BME280;63419;42.262;12.210;2023-03-04T06:50:45;97100.72;;;11.03;100.00
74868;BME280;63419;42.262;12.210;2023-03-04T06:53:48;97103.28;;;11.10;100.00
74868;BME280;63419;42.262;12.210;2023-03-04T06:56:35;97105.13;;;11.17;100.00
74868;BME280;63419;42.262;12.210;2023-03-04T06:59:04;97107.66;;;11.20;100.00
74868;BME280;63419;42.262;12.210;2023-03-04T07:01:31;97109.59;;;11.22;100.00
74868;BME280;63419;42.262;12.210;2023-03-04T07:03:59;97111.22;;;11.32;100.00
74868;BME280;63419;42.262;12.210;2023-03-04T07:06:28;97111.72;;;11.43;100.00
74868;BME280;63419;42.262;12.210;2023-03-04T07:08:56;97113.81;;;11.49;100.00
74868;BME280;63419;42.262;12.210;2023-03-04T07:11:24;97115.91;;;11.54;100.00
74868;BME280;63419;42.262;12.210;2023-03-04T07:13:51;97117.16;;;11.57;100.00
74868;BME280;63419;42.262;12.210;2023-03-04T07:16:21;97118.09;;;11.62;100.00
74868;BME280;63419;42.262;12.210;2023-03-04T07:18:49;97119.69;;;11.67;100.00
74868;BME280;63419;42.262;12.210;2023-03-04T07:21:17;97120.72;;;11.74;100.00
74868;BME280;63419;42.262;12.210;2023-03-04T07:23:45;97121.34;;;11.80;100.00
74868;BME280;63419;42.262;12.210;2023-03-04T07:26:12;97122.63;;;11.83;100.00
74868;BME280;63419;42.262;12.210;2023-03-04T07:28:39;97123.78;;;11.84;100.00
74868;BME280;63419;42.262;12.210;2023-03-04T07:31:23;97125.47;;;11.87;100.00
74868;BME280;63419;42.262;12.210;2023-03-04T07:33:51;97127.28;;;11.95;100.00
74868;BME280;63419;42.262;12.210;2023-03-04T07:36:18;97129.03;;;11.99;100.00
74868;BME280;63419;42.262;12.210;2023-03-04T07:38:48;97131.19;;;12.04;100.00
74868;BME280;63419;42.262;12.210;2023-03-04T07:41:17;97131.94;;;12.05;100.00
74868;BME280;63419;42.262;12.210;2023-03-04T07:43:45;97133.66;;;12.17;100.00
74868;BME280;63419;42.262;12.210;2023-03-04T07:46:13;97135.84;;;12.25;100.00
74868;BME280;63419;42.262;12.210;2023-03-04T07:48:41;97137.50;;;12.32;100.00
74868;BME280;63419;42.262;12.210;2023-03-04T07:53:43;97140.56;;;12.43;100.00
74868;BME280;63419;42.262;12.210;2023-03-04T07:56:14;97142.06;;;12.44;100.00
74868;BME280;63419;42.262;12.210;2023-03-04T07:58:42;97143.50;;;12.51;100.00
74868;BME280;63419;42.262;12.210;2023-03-04T08:01:14;97145.06;;;12.57;100.00
74868;BME280;63419;42.262;12.210;2023-03-04T08:03:42;97146.72;;;12.61;100.00
74868;BME280;63419;42.262;12.210;2023-03-04T08:06:12;97147.44;;;12.62;100.00
74868;BME280;63419;42.262;12.210;2023-03-04T08:08:40;97149.19;;;12.71;100.00
74868;BME280;63419;42.262;12.210;2023-03-04T08:11:16;97149.13;;;12.78;100.00
74868;BME280;63419;42.262;12.210;2023-03-04T08:13:44;97149.00;;;12.86;100.00
74868;BME280;63419;42.262;12.210;2023-03-04T08:16:18;97149.28;;;12.94;100.00
74868;BME280;63419;42.262;12.210;2023-03-04T08:18:48;97148.97;;;13.07;100.00
74868;BME280;63419;42.262;12.210;2023-03-04T08:21:18;97149.31;;;13.17;100.00
74868;BME280;63419;42.262;12.210;2023-03-04T08:23:46;97149.91;;;13.22;100.00
74868;BME280;63419;42.262;12.210;2023-03-04T08:26:22;97150.47;;;13.33;100.00
74868;BME280;63419;42.262;12.210;2023-03-04T08:28:50;97151.44;;;13.43;100.00
74868;BME280;63419;42.262;12.210;2023-03-04T08:31:18;97152.59;;;13.46;100.00
74868;BME280;63419;42.262;12.210;2023-03-04T08:33:46;97154.13;;;13.53;100.00
74868;BME280;63419;42.262;12.210;2023-03-04T08:36:14;97154.81;;;13.62;100.00
74868;BME280;63419;42.262;12.210;2023-03-04T08:38:42;97155.41;;;13.70;100.00
74868;BME280;63419;42.262;12.210;2023-03-04T08:41:09;97154.94;;;13.74;100.00
74868;BME280;63419;42.262;12.210;2023-03-04T08:43:37;97154.75;;;13.84;100.00
74868;BME280;63419;42.262;12.210;2023-03-04T08:46:05;97154.25;;;13.95;100.00
74868;BME280;63419;42.262;12.210;2023-03-04T08:48:32;97153.97;;;14.07;100.00
74868;BME280;63419;42.262;12.210;2023-03-04T08:51:00;97153.19;;;14.12;100.00
74868;BME280;63419;42.262;12.210;2023-03-04T08:53:27;97151.81;;;14.24;100.00
74868;BME280;63419;42.262;12.210;2023-03-04T08:55:54;97150.88;;;14.34;100.00
74868;BME280;63419;42.262;12.210;2023-03-04T08:58:24;97150.41;;;14.47;100.00
74868;BME280;63419;42.262;12.210;2023-03-04T09:00:59;97150.19;;;14.55;100.00
74868;BME280;63419;42.262;12.210;2023-03-04T09:03:27;97150.41;;;14.64;100.00
74868;BME280;63419;42.262;12.210;2023-03-04T09:05:56;97149.88;;;14.63;100.00
74868;BME280;63419;42.262;12.210;2023-03-04T09:08:23;97148.81;;;14.75;100.00
74868;BME280;63419;42.262;12.210;2023-03-04T09:10:53;97148.22;;;14.83;100.00
74868;BME280;63419;42.262;12.210;2023-03-04T09:13:22;97146.84;;;14.96;100.00
74868;BME280;63419;42.262;12.210;2023-03-04T09:15:52;97145.28;;;15.08;100.00
74868;BME280;63419;42.262;12.210;2023-03-04T09:18:22;97144.97;;;15.17;100.00
74868;BME280;63419;42.262;12.210;2023-03-04T09:20:50;97145.31;;;15.19;100.00
74868;BME280;63419;42.262;12.210;2023-03-04T09:23:18;97144.38;;;15.30;100.00
74868;BME280;63419;42.262;12.210;2023-03-04T09:25:46;97144.13;;;15.44;100.00
74868;BME280;63419;42.262;12.210;2023-03-04T09:28:16;97143.25;;;15.63;100.00
74868;BME280;63419;42.262;12.210;2023-03-04T09:30:44;97143.78;;;15.79;100.00
74868;BME280;63419;42.262;12.210;2023-03-04T09:33:14;97143.56;;;15.87;100.00
74868;BME280;63419;42.262;12.210;2023-03-04T09:35:42;97144.09;;;16.00;100.00
74868;BME280;63419;42.262;12.210;2023-03-04T09:38:10;97142.75;;;16.03;100.00
74868;BME280;63419;42.262;12.210;2023-03-04T09:40:45;97142.28;;;16.15;100.00
74868;BME280;63419;42.262;12.210;2023-03-04T09:43:24;97141.44;;;16.27;100.00
74868;BME280;63419;42.262;12.210;2023-03-04T09:46:03;97140.50;;;16.30;100.00
74868;BME280;63419;42.262;12.210;2023-03-04T09:48:50;97139.34;;;16.36;100.00
74868;BME280;63419;42.262;12.210;2023-03-04T09:51:43;97137.88;;;16.41;100.00
74868;BME280;63419;42.262;12.210;2023-03-04T09:56:59;97135.81;;;16.60;100.00
74868;BME280;63419;42.262;12.210;2023-03-04T10:05:23;97132.94;;;17.26;100.00
74868;BME280;63419;42.262;12.210;2023-03-04T10:10:51;59665.06;;;-143.63;100.00
74868;BME280;63419;42.262;12.210;2023-03-04T10:13:42;97131.25;;;17.59;100.00
74868;BME280;63419;42.262;12.210;2023-03-04T10:16:21;97131.16;;;17.82;100.00
74868;BME280;63419;42.262;12.210;2023-03-04T10:21:50;97129.41;;;18.10;100.00
74868;BME280;63419;42.262;12.210;2023-03-04T10:24:28;97127.59;;;18.18;100.00
74868;BME280;63419;42.262;12.210;2023-03-04T10:27:12;97126.47;;;18.44;100.00
74868;BME280;63419;42.262;12.210;2023-03-04T10:29:42;97126.28;;;18.58;100.00
74868;BME280;63419;42.262;12.210;2023-03-04T10:32:17;97126.25;;;18.88;100.00
74868;BME280;63419;42.262;12.210;2023-03-04T10:34:45;97125.47;;;19.16;100.00
74868;BME280;63419;42.262;12.210;2023-03-04T10:37:13;97123.63;;;19.35;88.81
74868;BME280;63419;42.262;12.210;2023-03-04T10:39:46;97122.47;;;19.68;95.29
74868;BME280;63419;42.262;12.210;2023-03-04T10:45:02;97118.25;;;20.28;85.45
74868;BME280;63419;42.262;12.210;2023-03-04T10:47:31;97117.00;;;20.33;89.56
74868;BME280;63419;42.262;12.210;2023-03-04T10:50:03;97115.13;;;20.40;88.59
74868;BME280;63419;42.262;12.210;2023-03-04T10:52:37;97113.31;;;20.62;84.11
74868;BME280;63419;42.262;12.210;2023-03-04T10:55:20;97111.06;;;20.98;78.73
74868;BME280;63419;42.262;12.210;2023-03-04T10:58:12;97108.56;;;21.39;69.74
74868;BME280;63419;42.262;12.210;2023-03-04T11:00:39;97105.59;;;21.55;62.82
74868;BME280;63419;42.262;12.210;2023-03-04T11:03:29;97103.19;;;21.94;62.94
74868;BME280;63419;42.262;12.210;2023-03-04T11:06:23;97100.06;;;22.27;68.66
74868;BME280;63419;42.262;12.210;2023-03-04T11:08:56;97097.53;;;22.38;72.56
74868;BME280;63419;42.262;12.210;2023-03-04T11:11:36;97095.47;;;22.48;63.84
74868;BME280;63419;42.262;12.210;2023-03-04T11:14:25;97093.53;;;22.69;68.85
74868;BME280;63419;42.262;12.210;2023-03-04T11:17:00;97090.81;;;23.00;61.60
74868;BME280;63419;42.262;12.210;2023-03-04T11:19:37;97089.47;;;22.96;85.08
74868;BME280;63419;42.262;12.210;2023-03-04T11:22:05;97086.22;;;23.22;64.25
74868;BME280;63419;42.262;12.210;2023-03-04T11:24:35;97083.78;;;23.37;65.20
74868;BME280;63419;42.262;12.210;2023-03-04T11:27:33;97079.75;;;23.61;65.22
74868;BME280;63419;42.262;12.210;2023-03-04T11:33:16;97074.22;;;24.04;55.77
74868;BME280;63419;42.262;12.210;2023-03-04T11:38:49;97069.47;;;24.36;54.48
74868;BME280;63419;42.262;12.210;2023-03-04T11:41:27;97065.47;;;24.70;51.74
74868;BME280;63419;42.262;12.210;2023-03-04T11:43:57;97063.41;;;24.78;60.57
74868;BME280;63419;42.262;12.210;2023-03-04T11:46:51;97060.25;;;24.93;54.46
74868;BME280;63419;42.262;12.210;2023-03-04T11:58:46;97046.59;;;25.89;46.18
74868;BME280;63419;42.262;12.210;2023-03-04T12:36:12;96982.31;;;30.98;35.44
74868;BME280;63419;42.262;12.210;2023-03-04T12:41:55;96971.69;;;31.92;31.80
74868;BME280;63419;42.262;12.210;2023-03-04T12:44:24;96966.34;;;32.18;32.15
74868;BME280;63419;42.262;12.210;2023-03-04T12:50:45;96957.09;;;33.28;32.90
74868;BME280;63419;42.262;12.210;2023-03-04T12:56:26;96948.47;;;33.61;31.52
74868;BME280;63419;42.262;12.210;2023-03-04T12:58:59;96944.25;;;34.24;29.52
74868;BME280;63419;42.262;12.210;2023-03-04T13:10:44;96929.41;;;35.39;27.83
74868;BME280;63419;42.262;12.210;2023-03-04T13:19:01;96919.84;;;37.05;25.48
74868;BME280;63419;42.262;12.210;2023-03-04T13:21:30;96915.63;;;37.47;25.19
74868;BME280;63419;42.262;12.210;2023-03-04T13:27:48;96911.53;;;37.44;28.29
74868;BME280;63419;42.262;12.210;2023-03-04T13:38:36;96905.63;;;36.49;31.95
74868;BME280;63419;42.262;12.210;2023-03-04T13:51:40;96914.78;;;32.08;41.08
74868;BME280;63419;42.262;12.210;2023-03-04T13:54:31;96914.78;;;31.59;37.58
74868;BME280;63419;42.262;12.210;2023-03-04T13:57:17;96917.53;;;30.43;45.48
74868;BME280;63419;42.262;12.210;2023-03-04T13:59:54;96919.84;;;29.47;47.84
74868;BME280;63419;42.262;12.210;2023-03-04T14:02:24;96919.97;;;28.79;49.01
74868;BME280;63419;42.262;12.210;2023-03-04T14:05:00;96919.19;;;28.30;46.10
74868;BME280;63419;42.262;12.210;2023-03-04T14:07:34;96918.59;;;27.82;52.62
74868;BME280;63419;42.262;12.210;2023-03-04T14:12:55;96916.69;;;27.16;48.51
74868;BME280;63419;42.262;12.210;2023-03-04T14:15:28;96914.72;;;26.99;46.96
74868;BME280;63419;42.262;12.210;2023-03-04T14:18:00;96914.31;;;26.81;46.11
74868;BME280;63419;42.262;12.210;2023-03-04T14:20:33;96911.75;;;27.05;42.82
74868;BME280;63419;42.262;12.210;2023-03-04T14:23:22;96910.28;;;27.20;41.43
74868;BME280;63419;42.262;12.210;2023-03-04T14:25:50;96909.00;;;27.07;44.18
74868;BME280;63419;42.262;12.210;2023-03-04T14:28:19;96908.28;;;26.49;48.50
74868;BME280;63419;42.262;12.210;2023-03-04T14:30:56;96906.59;;;26.27;50.15
74868;BME280;63419;42.262;12.210;2023-03-04T14:33:28;96905.63;;;25.95;57.21
74868;BME280;63419;42.262;12.210;2023-03-04T14:35:59;96905.63;;;25.52;62.16
74868;BME280;63419;42.262;12.210;2023-03-04T14:38:37;96903.25;;;25.30;56.29
74868;BME280;63419;42.262;12.210;2023-03-04T14:41:33;96900.16;;;25.44;49.08
74868;BME280;63419;42.262;12.210;2023-03-04T14:44:18;96897.59;;;25.63;45.82
74868;BME280;63419;42.262;12.210;2023-03-04T14:46:54;96896.72;;;25.60;47.63
74868;BME280;63419;42.262;12.210;2023-03-04T14:49:36;96895.19;;;25.49;50.48
74868;BME280;63419;42.262;12.210;2023-03-04T14:52:06;96893.59;;;25.36;49.06
74868;BME280;63419;42.262;12.210;2023-03-04T14:55:07;96891.88;;;25.32;50.16
74868;BME280;63419;42.262;12.210;2023-03-04T15:00:36;96888.22;;;24.68;65.35
74868;BME280;63419;42.262;12.210;2023-03-04T15:05:48;96885.72;;;24.16;61.47
74868;BME280;63419;42.262;12.210;2023-03-04T15:08:33;96883.00;;;24.16;55.36
74868;BME280;63419;42.262;12.210;2023-03-04T15:11:05;96881.22;;;24.40;51.75
74868;BME280;63419;42.262;12.210;2023-03-04T15:13:45;96879.06;;;24.58;50.38
74868;BME280;63419;42.262;12.210;2023-03-04T15:16:19;96875.75;;;25.02;46.56